Time,TemperatureF,DewpointF,PressureIn,WindDirection,WindDirectionDegrees,WindSpeedMPH,WindSpeedGustMPH,Humidity,HourlyPrecipIn,Conditions,Clouds,dailyrainin,SoftwareType,DateUTC
2013-01-17 00:07:00,32.2,31.7,30.29,ESE,112,0.0,-999.0,98,-99.99,,,0.00,Acu-Link.com,2013-01-17 08:07:00,
2013-01-17 00:22:00,31.3,30.8,30.29,ESE,112,0.0,-999.0,98,-99.99,,,0.00,Acu-Link.com,2013-01-17 08:22:00,
2013-01-17 00:37:00,31.3,30.8,30.28,NE,45,0.0,-999.0,98,-99.99,,,0.00,Acu-Link.com,2013-01-17 08:37:00,
2013-01-17 00:53:00,32.0,31.5,30.29,NE,45,0.0,-999.0,98,-99.99,,,0.00,Acu-Link.com,2013-01-17 08:53:00,
2013-01-17 01:08:00,31.8,31.3,30.28,ESE,112,0.0,-999.0,98,-99.99,,,0.00,Acu-Link.com,2013-01-17 09:08:00,
2013-01-17 01:23:00,31.3,30.8,30.28,North,0,0.0,-999.0,98,-99.99,,,0.00,Acu-Link.com,2013-01-17 09:23:00,
2013-01-17 01:38:00,30.9,30.4,30.26,East,90,0.0,-999.0,98,-99.99,,,0.00,Acu-Link.com,2013-01-17 09:38:00,
2013-01-17 01:54:00,31.6,31.1,30.27,ESE,112,0.0,-999.0,98,-99.99,,,0.00,Acu-Link.com,2013-01-17 09:54:00,
2013-01-17 02:09:00,31.1,30.6,30.27,East,90,0.0,-999.0,98,-99.99,,,0.00,Acu-Link.com,2013-01-17 10:09:00,
2013-01-17 02:24:00,30.9,30.4,30.28,ESE,112,0.0,-999.0,98,-99.99,,,0.00,Acu-Link.com,2013-01-17 10:24:00,
2013-01-17 02:40:00,30.2,29.7,30.26,SSE,157,0.0,-999.0,98,-99.99,,,0.00,Acu-Link.com,2013-01-17 10:40:00,
2013-01-17 02:55:00,29.8,29.3,30.27,ENE,67,0.0,-999.0,98,-99.99,,,0.00,Acu-Link.com,2013-01-17 10:55:00,
2013-01-17 03:10:00,30.4,29.9,30.26,East,90,0.0,-999.0,98,-99.99,,,0.00,Acu-Link.com,2013-01-17 11:10:00,
2013-01-17 03:26:00,30.4,29.9,30.26,East,90,0.0,-999.0,98,-99.99,,,0.00,Acu-Link.com,2013-01-17 11:26:00,
2013-01-17 03:41:00,30.2,29.7,30.25,East,90,0.0,-999.0,98,-99.99,,,0.00,Acu-Link.com,2013-01-17 11:41:00,
2013-01-17 03:56:00,30.2,29.7,30.25,ESE,112,0.0,-999.0,98,-99.99,,,0.00,Acu-Link.com,2013-01-17 11:56:00,
2013-01-17 04:11:00,30.7,30.2,30.25,ESE,112,0.0,-999.0,98,-99.99,,,0.00,Acu-Link.com,2013-01-17 12:11:00,
2013-01-17 04:26:00,30.2,29.7,30.25,SE,135,0.0,-999.0,98,-99.99,,,0.00,Acu-Link.com,2013-01-17 12:26:00,
2013-01-17 04:42:00,29.7,29.2,30.23,SSE,157,0.0,-999.0,98,-99.99,,,0.00,Acu-Link.com,2013-01-17 12:42:00,
2013-01-17 04:57:00,29.1,28.6,30.22,NE,45,1.7,-999.0,98,-99.99,,,0.00,Acu-Link.com,2013-01-17 12:57:00,
2013-01-17 05:12:00,29.5,29.0,30.23,ESE,112,0.0,-999.0,98,-99.99,,,0.00,Acu-Link.com,2013-01-17 13:12:00,
2013-01-17 05:28:00,29.5,29.0,30.22,SSW,202,0.0,-999.0,98,-99.99,,,0.00,Acu-Link.com,2013-01-17 13:28:00,
2013-01-17 05:43:00,29.3,28.8,30.22,ESE,112,0.0,-999.0,98,-99.99,,,0.00,Acu-Link.com,2013-01-17 13:43:00,
2013-01-17 05:58:00,28.9,28.4,30.21,ESE,112,0.0,-999.0,98,-99.99,,,0.00,Acu-Link.com,2013-01-17 13:58:00,
2013-01-17 06:13:00,29.1,28.6,30.22,SSE,157,0.0,-999.0,98,-99.99,,,0.00,Acu-Link.com,2013-01-17 14:13:00,
2013-01-17 06:29:00,28.9,28.4,30.21,ESE,112,0.0,-999.0,98,-99.99,,,0.00,Acu-Link.com,2013-01-17 14:29:00,
2013-01-17 06:44:00,29.1,28.6,30.21,NE,45,0.0,-999.0,98,-99.99,,,0.00,Acu-Link.com,2013-01-17 14:44:00,
2013-01-17 06:59:00,29.1,28.6,30.21,ESE,112,0.0,-999.0,98,-99.99,,,0.00,Acu-Link.com,2013-01-17 14:59:00,
2013-01-17 07:14:00,29.1,28.6,30.21,ESE,112,0.0,-999.0,98,-99.99,,,0.00,Acu-Link.com,2013-01-17 15:14:00,
2013-01-17 07:30:00,28.9,28.4,30.22,ESE,112,0.0,-999.0,98,-99.99,,,0.00,Acu-Link.com,2013-01-17 15:30:00,
2013-01-17 07:45:00,28.9,28.4,30.22,ESE,112,0.0,-999.0,98,-99.99,,,0.00,Acu-Link.com,2013-01-17 15:45:00,
2013-01-17 08:00:00,28.8,28.3,30.22,ESE,112,0.0,-999.0,98,-99.99,,,0.00,Acu-Link.com,2013-01-17 16:00:00,
2013-01-17 08:16:00,28.8,28.3,30.22,WNW,292,0.0,-999.0,98,-99.99,,,0.00,Acu-Link.com,2013-01-17 16:16:00,
2013-01-17 08:31:00,28.9,28.4,30.23,South,180,0.0,-999.0,98,-99.99,,,0.00,Acu-Link.com,2013-01-17 16:31:00,
2013-01-17 08:46:00,29.5,29.0,30.23,East,90,0.0,-999.0,98,-99.99,,,0.00,Acu-Link.com,2013-01-17 16:46:00,
2013-01-17 09:02:00,30.2,29.7,30.23,SSW,202,0.0,-999.0,98,-99.99,,,0.00,Acu-Link.com,2013-01-17 17:02:00,
2013-01-17 09:17:00,30.6,30.1,30.24,SW,225,0.0,-999.0,98,-99.99,,,0.00,Acu-Link.com,2013-01-17 17:17:00,
2013-01-17 09:32:00,31.6,31.1,30.24,SE,135,0.0,-999.0,98,-99.99,,,0.00,Acu-Link.com,2013-01-17 17:32:00,
2013-01-17 09:47:00,33.1,32.6,30.24,NE,45,1.1,-999.0,98,-99.99,,,0.00,Acu-Link.com,2013-01-17 17:47:00,
2013-01-17 10:03:00,34.5,34.0,30.23,ENE,67,0.0,-999.0,98,-99.99,,,0.00,Acu-Link.com,2013-01-17 18:03:00,
2013-01-17 10:18:00,37.0,36.5,30.23,SE,135,0.0,-999.0,98,-99.99,,,0.00,Acu-Link.com,2013-01-17 18:18:00,
2013-01-17 10:34:00,40.5,40.0,30.23,SE,135,0.0,-999.0,98,-99.99,,,0.01,Acu-Link.com,2013-01-17 18:34:00,
2013-01-17 10:49:00,42.6,42.1,30.23,South,180,0.0,-999.0,98,-99.99,,,0.01,Acu-Link.com,2013-01-17 18:49:00,
2013-01-17 11:04:00,45.7,45.2,30.23,West,270,0.0,-999.0,98,-99.99,,,0.01,Acu-Link.com,2013-01-17 19:04:00,
2013-01-17 11:20:00,49.3,46.5,30.21,SW,225,0.0,-999.0,90,-99.99,,,0.01,Acu-Link.com,2013-01-17 19:20:00,
2013-01-17 11:35:00,51.8,46.8,30.21,East,90,1.1,-999.0,83,-99.99,,,0.01,Acu-Link.com,2013-01-17 19:35:00,
2013-01-17 11:50:00,54.9,46.4,30.20,WNW,292,1.1,-999.0,73,-99.99,,,0.01,Acu-Link.com,2013-01-17 19:50:00,
2013-01-17 12:05:00,56.5,46.1,30.19,West,270,1.1,-999.0,68,-99.99,,,0.01,Acu-Link.com,2013-01-17 20:05:00,
2013-01-17 12:21:00,58.1,47.2,30.18,WSW,247,1.7,-999.0,67,-99.99,,,0.01,Acu-Link.com,2013-01-17 20:21:00,
2013-01-17 12:36:00,61.2,48.1,30.17,SW,225,0.0,-999.0,62,-99.99,,,0.01,Acu-Link.com,2013-01-17 20:36:00,
2013-01-17 14:20:00,66.9,46.6,30.13,WSW,247,1.1,-999.0,48,-99.99,,,0.01,Acu-Link.com,2013-01-17 22:20:00,
2013-01-17 14:35:00,66.6,52.3,30.12,WSW,247,2.7,-999.0,60,-99.99,,,0.01,Acu-Link.com,2013-01-17 22:35:00,
2013-01-17 14:50:00,66.9,51.6,30.11,WSW,247,2.7,-999.0,58,-99.99,,,0.01,Acu-Link.com,2013-01-17 22:50:00,
2013-01-17 15:05:00,67.1,52.7,30.11,SSW,202,1.7,-999.0,60,-99.99,,,0.01,Acu-Link.com,2013-01-17 23:05:00,
2013-01-17 15:21:00,68.0,53.6,30.11,SW,225,2.7,-999.0,60,-99.99,,,0.01,Acu-Link.com,2013-01-17 23:21:00,
2013-01-17 15:36:00,67.5,52.7,30.11,SSW,202,0.0,-999.0,59,-99.99,,,0.01,Acu-Link.com,2013-01-17 23:36:00,
2013-01-17 15:51:00,66.0,53.5,30.11,SSW,202,2.7,-999.0,64,-99.99,,,0.01,Acu-Link.com,2013-01-17 23:51:00,
2013-01-17 16:07:00,65.5,53.4,30.11,SSW,202,0.0,-999.0,65,-99.99,,,0.01,Acu-Link.com,2013-01-18 00:07:00,
2013-01-17 16:23:00,63.1,53.2,30.12,South,180,0.0,-999.0,70,-99.99,,,0.01,Acu-Link.com,2013-01-18 00:23:00,
2013-01-17 16:38:00,60.6,52.3,30.12,SE,135,0.0,-999.0,74,-99.99,,,0.01,Acu-Link.com,2013-01-18 00:38:00,
2013-01-17 16:53:00,61.0,51.5,30.12,ESE,112,0.0,-999.0,71,-99.99,,,0.01,Acu-Link.com,2013-01-18 00:53:00,
2013-01-17 17:08:00,57.4,51.3,30.14,ESE,112,0.0,-999.0,80,-99.99,,,0.01,Acu-Link.com,2013-01-18 01:08:00,
2013-01-17 17:24:00,53.4,52.8,30.14,ESE,112,0.0,-999.0,98,-99.99,,,0.01,Acu-Link.com,2013-01-18 01:24:00,
2013-01-17 17:39:00,51.1,50.6,30.14,ESE,112,0.0,-999.0,98,-99.99,,,0.01,Acu-Link.com,2013-01-18 01:39:00,
2013-01-17 17:54:00,49.3,48.8,30.13,ESE,112,0.0,-999.0,98,-99.99,,,0.01,Acu-Link.com,2013-01-18 01:54:00,
2013-01-17 18:09:00,47.7,47.2,30.14,ESE,112,0.0,-999.0,98,-99.99,,,0.01,Acu-Link.com,2013-01-18 02:09:00,
2013-01-17 18:25:00,46.2,45.7,30.14,ESE,112,0.0,-999.0,98,-99.99,,,0.01,Acu-Link.com,2013-01-18 02:25:00,
2013-01-17 18:40:00,45.0,44.5,30.13,NNE,22,0.0,-999.0,98,-99.99,,,0.01,Acu-Link.com,2013-01-18 02:40:00,
2013-01-17 18:55:00,43.9,43.4,30.14,ESE,112,0.0,-999.0,98,-99.99,,,0.01,Acu-Link.com,2013-01-18 02:55:00,
2013-01-17 19:11:00,43.2,42.7,30.13,East,90,0.0,-999.0,98,-99.99,,,0.01,Acu-Link.com,2013-01-18 03:11:00,
2013-01-17 19:26:00,42.3,41.8,30.14,East,90,0.0,-999.0,98,-99.99,,,0.01,Acu-Link.com,2013-01-18 03:26:00,
2013-01-17 19:41:00,41.4,40.9,30.13,ESE,112,0.0,-999.0,98,-99.99,,,0.01,Acu-Link.com,2013-01-18 03:41:00,
2013-01-17 19:57:00,41.2,40.7,30.14,ESE,112,0.0,-999.0,98,-99.99,,,0.01,Acu-Link.com,2013-01-18 03:57:00,
2013-01-17 20:12:00,41.0,40.5,30.14,ENE,67,0.0,-999.0,98,-99.99,,,0.01,Acu-Link.com,2013-01-18 04:12:00,
2013-01-17 20:27:00,40.1,39.6,30.14,WNW,292,0.0,-999.0,98,-99.99,,,0.01,Acu-Link.com,2013-01-18 04:27:00,
2013-01-17 20:43:00,39.2,38.7,30.13,ESE,112,0.0,-999.0,98,-99.99,,,0.01,Acu-Link.com,2013-01-18 04:43:00,
2013-01-17 20:58:00,38.3,37.8,30.13,West,270,0.0,-999.0,98,-99.99,,,0.01,Acu-Link.com,2013-01-18 04:58:00,
2013-01-17 21:13:00,38.1,37.6,30.13,West,270,0.0,-999.0,98,-99.99,,,0.01,Acu-Link.com,2013-01-18 05:13:00,
2013-01-17 21:29:00,38.1,37.6,30.13,NE,45,0.0,-999.0,98,-99.99,,,0.01,Acu-Link.com,2013-01-18 05:29:00,
2013-01-17 21:44:00,37.6,37.1,30.14,South,180,0.0,-999.0,98,-99.99,,,0.01,Acu-Link.com,2013-01-18 05:44:00,
2013-01-17 21:59:00,36.9,36.4,30.13,ESE,112,0.0,-999.0,98,-99.99,,,0.01,Acu-Link.com,2013-01-18 05:59:00,
2013-01-17 22:14:00,36.5,36.0,30.14,NE,45,0.0,-999.0,98,-99.99,,,0.01,Acu-Link.com,2013-01-18 06:14:00,
2013-01-17 22:30:00,36.5,36.0,30.13,NE,45,0.0,-999.0,98,-99.99,,,0.01,Acu-Link.com,2013-01-18 06:30:00,
2013-01-17 23:00:00,36.3,35.8,30.15,SSE,157,0.0,-999.0,98,-99.99,,,0.01,Acu-Link.com,2013-01-18 07:00:00,
2013-01-17 23:16:00,36.5,36.0,30.14,NE,45,0.0,-999.0,98,-99.99,,,0.01,Acu-Link.com,2013-01-18 07:16:00,
2013-01-17 23:31:00,36.3,35.8,30.13,ESE,112,0.0,-999.0,98,-99.99,,,0.01,Acu-Link.com,2013-01-18 07:31:00,
2013-01-17 23:46:00,35.8,35.3,30.14,ESE,112,0.0,-999.0,98,-99.99,,,0.01,Acu-Link.com,2013-01-18 07:46:00,